Terminal Aerodrome Forecast
Issued by NWS Spokane, WA

Home | Current Version | Previous Version | Text Only | Print | Product List | Glossary On
Versions: 1 2 3 4 5 6 7 8 9 10 11 12 13 14
000
FTUS46 KOTX 282338
TAFGEG
TAF
KGEG 282338Z 2900/2924 36008KT P6SM FEW090
     FM290700 08004KT P6SM SKC
     FM292000 22008KT P6SM FEW090=

USA.gov is the U.S. government's official web portal to all federal, state and local government web resources and services.